Time;durP1;ratioP1;P1;durP2;ratioP2;P2;SDS_P1;SDS_P2;PMS_P1;PMS_P2;Temp;Humidity;BMP_temperature;BMP_pressure;BME280_temperature;BME280_humidity;BME280_pressure;Samples;Min_cycle;Max_cycle;Signal;HPM_P1;HPM_P2
2024/02/23 00:00:35;;;;;;;54.15;29.65;;;-1.10;99.90;;;;;;5072241;28;20098;-75
2024/02/23 00:03:01;;;;;;;50.33;30.75;;;-1.20;99.90;;;;;;5072397;28;20512;-74
2024/02/23 00:05:26;;;;;;;51.80;27.77;;;-1.20;99.90;;;;;;5072269;28;20025;-76
2024/02/23 00:07:52;;;;;;;51.13;28.02;;;-1.20;99.90;;;;;;5072388;28;20017;-76
2024/02/23 00:10:18;;;;;;;51.35;26.80;;;-1.20;99.90;;;;;;5069802;28;20036;-75
2024/02/23 00:12:44;;;;;;;44.20;25.75;;;-1.20;99.90;;;;;;5071981;28;20032;-76
2024/02/23 00:15:10;;;;;;;50.97;27.10;;;-1.20;99.90;;;;;;5054515;28;20120;-75
2024/02/23 00:17:36;;;;;;;46.65;26.13;;;-1.20;99.90;;;;;;5072157;28;20021;-75
2024/02/23 00:20:02;;;;;;;46.78;26.92;;;-1.20;99.90;;;;;;5072059;28;20027;-74
2024/02/23 00:22:28;;;;;;;48.15;26.10;;;-1.20;99.90;;;;;;5051213;28;20051;-76
2024/02/23 00:24:54;;;;;;;52.58;27.42;;;-1.20;99.90;;;;;;5072022;28;20025;-75
2024/02/23 00:27:22;;;;;;;41.88;26.25;;;-1.20;99.90;;;;;;5070835;28;20039;-75
2024/02/23 00:29:48;;;;;;;46.55;26.05;;;-1.20;99.90;;;;;;5064651;28;20054;-75
2024/02/23 00:32:14;;;;;;;45.60;24.83;;;-1.10;99.90;;;;;;5071963;28;20032;-75
2024/02/23 00:34:40;;;;;;;49.67;26.50;;;-1.10;99.90;;;;;;5071965;28;20028;-74
2024/02/23 00:37:07;;;;;;;44.03;24.58;;;-1.10;99.90;;;;;;5053782;28;20035;-75
2024/02/23 00:39:33;;;;;;;53.08;28.40;;;-1.10;99.90;;;;;;5071922;28;20030;-75
2024/02/23 00:41:59;;;;;;;43.63;27.40;;;-1.10;99.90;;;;;;5071449;28;20054;-75
2024/02/23 00:44:25;;;;;;;46.78;26.25;;;-1.00;99.90;;;;;;5069806;28;20397;-75
2024/02/23 00:46:51;;;;;;;46.25;24.92;;;-1.00;99.90;;;;;;5071715;28;20029;-76
2024/02/23 00:49:16;;;;;;;45.25;25.10;;;-1.10;99.90;;;;;;5053890;28;20021;-75
2024/02/23 00:51:43;;;;;;;48.40;29.75;;;-1.10;99.90;;;;;;5053619;28;20036;-76
2024/02/23 00:54:09;;;;;;;43.28;24.58;;;-1.10;99.90;;;;;;5072211;28;20482;-76
2024/02/23 00:56:35;;;;;;;48.50;27.27;;;-1.10;99.90;;;;;;5072542;28;20035;-76
2024/02/23 00:59:01;;;;;;;45.72;25.65;;;-1.10;99.90;;;;;;5054357;28;20096;-73
2024/02/23 01:01:28;;;;;;;50.00;26.23;;;-1.10;99.90;;;;;;5070653;28;20111;-75
2024/02/23 01:03:54;;;;;;;45.67;24.88;;;-1.10;99.90;;;;;;5071425;28;20095;-75
2024/02/23 01:06:20;;;;;;;45.90;25.17;;;-1.10;99.90;;;;;;5071677;28;20048;-74
2024/02/23 01:08:46;;;;;;;46.00;24.60;;;-1.10;99.90;;;;;;5071507;28;20054;-75
2024/02/23 01:11:11;;;;;;;42.03;25.10;;;-1.00;99.90;;;;;;5071541;28;20032;-74
2024/02/23 01:13:37;;;;;;;49.97;26.80;;;-1.00;99.90;;;;;;5070641;28;20027;-75
2024/02/23 01:16:03;;;;;;;50.47;27.77;;;-1.00;99.90;;;;;;5051022;28;20040;-74
2024/02/23 01:18:29;;;;;;;41.92;24.20;;;-1.10;99.90;;;;;;5069727;28;20096;-74
2024/02/23 01:20:57;;;;;;;44.97;25.65;;;-1.10;99.90;;;;;;5070139;28;20029;-74
2024/02/23 01:23:23;;;;;;;39.95;22.90;;;-1.00;99.90;;;;;;5069430;28;20478;-73
2024/02/23 01:25:49;;;;;;;45.83;25.73;;;-1.00;99.90;;;;;;5053092;28;20043;-74
2024/02/23 01:28:15;;;;;;;43.22;26.05;;;-1.00;99.90;;;;;;5071431;28;20031;-75
2024/02/23 01:30:40;;;;;;;47.75;25.50;;;-1.00;99.90;;;;;;5071291;28;20107;-75
2024/02/23 01:33:06;;;;;;;46.45;26.55;;;-1.00;99.90;;;;;;5071392;28;20083;-75
2024/02/23 01:35:32;;;;;;;44.20;24.73;;;-1.10;99.90;;;;;;5070050;28;20021;-74
2024/02/23 01:37:58;;;;;;;40.25;24.13;;;-1.10;99.90;;;;;;5071523;28;20032;-74
2024/02/23 01:40:24;;;;;;;48.20;25.88;;;-1.00;99.90;;;;;;5070342;28;20040;-75
2024/02/23 01:43:00;;;;;;;37.60;22.63;;;-1.00;99.90;;;;;;5071245;28;20028;-75
2024/02/23 01:45:26;;;;;;;48.45;25.15;;;-1.00;99.90;;;;;;5071177;28;20016;-74
2024/02/23 01:47:52;;;;;;;42.20;22.95;;;-0.90;99.90;;;;;;5071492;28;20021;-76
2024/02/23 01:50:17;;;;;;;46.40;22.90;;;-0.90;99.90;;;;;;5071394;28;20436;-74
2024/02/23 01:52:43;;;;;;;39.33;25.10;;;-0.90;99.90;;;;;;5070029;28;20486;-74
2024/02/23 01:55:09;;;;;;;40.30;24.92;;;-0.90;99.90;;;;;;5073738;28;20365;-75
2024/02/23 01:57:35;;;;;;;45.47;24.70;;;-0.90;99.90;;;;;;5074691;28;20092;-73
2024/02/23 02:00:02;;;;;;;41.70;23.60;;;-0.90;99.90;;;;;;5073670;28;20432;-74
2024/02/23 02:02:28;;;;;;;44.95;26.50;;;-0.90;99.90;;;;;;5074791;28;20021;-75
2024/02/23 02:04:54;;;;;;;42.22;23.77;;;-0.80;99.90;;;;;;5074722;28;20020;-75
2024/02/23 02:07:22;;;;;;;44.95;23.70;;;-0.80;99.90;;;;;;5055306;28;20430;-75
2024/02/23 02:09:48;;;;;;;40.92;24.58;;;-0.80;99.90;;;;;;5072985;28;20437;-73
2024/02/23 02:12:14;;;;;;;42.28;23.23;;;-0.80;99.90;;;;;;5074567;28;20033;-74
2024/02/23 02:14:40;;;;;;;44.55;24.65;;;-0.80;99.90;;;;;;5074474;28;20036;-74
2024/02/23 02:17:06;;;;;;;45.40;24.75;;;-0.80;99.90;;;;;;5074185;28;20091;-74
2024/02/23 02:19:32;;;;;;;47.13;29.73;;;-0.80;99.90;;;;;;5074729;28;20070;-74
2024/02/23 02:21:58;;;;;;;47.28;24.23;;;-0.80;99.90;;;;;;5072731;28;20365;-75
2024/02/23 02:24:24;;;;;;;44.90;24.05;;;-0.80;99.90;;;;;;5073325;28;20215;-73
2024/02/23 02:26:50;;;;;;;46.05;24.77;;;-0.90;99.90;;;;;;5074341;28;20048;-75
2024/02/23 02:29:16;;;;;;;43.83;24.63;;;-0.90;99.90;;;;;;5075557;28;20020;-74
2024/02/23 02:31:42;;;;;;;42.72;24.85;;;-1.00;99.90;;;;;;5074457;28;20482;-73
2024/02/23 02:34:08;;;;;;;48.40;24.63;;;-1.00;99.90;;;;;;5074134;28;20016;-73
2024/02/23 02:36:34;;;;;;;45.50;24.65;;;-1.00;99.90;;;;;;5074676;28;20028;-75
2024/02/23 02:39:00;;;;;;;52.75;28.77;;;-1.00;99.90;;;;;;5067514;28;20490;-75
2024/02/23 02:41:32;;;;;;;42.53;24.38;;;-1.00;99.90;;;;;;5071569;28;20021;-76
2024/02/23 02:43:57;;;;;;;46.60;25.63;;;-1.00;99.90;;;;;;5073936;28;20101;-75
2024/02/23 02:46:23;;;;;;;47.35;28.10;;;-1.00;99.90;;;;;;5073983;28;20059;-74
2024/02/23 02:48:49;;;;;;;43.28;24.90;;;-1.00;99.90;;;;;;5074258;28;20214;-74
2024/02/23 02:51:15;;;;;;;49.50;27.85;;;-1.00;99.90;;;;;;5073697;28;20025;-76
2024/02/23 02:53:41;;;;;;;40.78;24.02;;;-1.00;99.90;;;;;;5073886;28;20028;-75
2024/02/23 02:56:07;;;;;;;42.92;24.50;;;-1.00;99.90;;;;;;5070790;28;20103;-75
2024/02/23 02:58:33;;;;;;;48.47;25.40;;;-1.10;99.90;;;;;;5070935;28;20034;-74
2024/02/23 03:00:58;;;;;;;48.50;27.17;;;-1.10;99.90;;;;;;5073644;28;20032;-76
2024/02/23 03:03:24;;;;;;;44.03;23.92;;;-1.00;99.90;;;;;;5055545;28;20048;-75
2024/02/23 03:05:50;;;;;;;42.92;25.50;;;-1.10;99.90;;;;;;5073634;28;20100;-75
2024/02/23 03:08:16;;;;;;;50.55;25.50;;;-1.00;99.90;;;;;;5055016;28;20034;-76
2024/02/23 03:10:42;;;;;;;48.72;25.33;;;-0.90;99.90;;;;;;5072507;28;20442;-74
2024/02/23 03:13:07;;;;;;;60.90;29.77;;;-1.00;99.90;;;;;;5058939;28;20119;-73
2024/02/23 03:15:33;;;;;;;45.65;26.27;;;-1.00;99.90;;;;;;5071001;28;20102;-74
2024/02/23 03:18:01;;;;;;;50.45;24.13;;;-1.00;99.90;;;;;;5073359;28;20044;-74
2024/02/23 03:20:27;;;;;;;48.63;26.48;;;-1.10;99.90;;;;;;5055460;28;20384;-75
2024/02/23 03:22:53;;;;;;;43.35;20.67;;;-1.10;99.90;;;;;;5055483;28;20024;-75
2024/02/23 03:25:18;;;;;;;50.78;27.33;;;-1.20;99.90;;;;;;5055377;28;20021;-74
2024/02/23 03:27:44;;;;;;;48.13;26.42;;;-1.20;99.90;;;;;;5070992;28;20020;-75
2024/02/23 03:30:10;;;;;;;50.65;26.45;;;-1.20;99.90;;;;;;5073128;28;20074;-74
2024/02/23 03:32:36;;;;;;;44.40;24.30;;;-1.20;99.90;;;;;;5072856;28;20029;-73
2024/02/23 03:35:08;;;;;;;46.65;24.42;;;-1.20;99.90;;;;;;5072991;28;20048;-74
2024/02/23 03:37:34;;;;;;;44.80;22.70;;;-1.30;99.90;;;;;;5072960;28;20304;-73
2024/02/23 03:40:00;;;;;;;45.92;24.73;;;-1.30;99.90;;;;;;5073204;28;20029;-74
2024/02/23 03:42:27;;;;;;;43.67;25.55;;;-1.20;99.90;;;;;;5054485;28;20438;-73
2024/02/23 03:44:53;;;;;;;54.78;25.60;;;-1.10;99.90;;;;;;5073944;28;20017;-74
2024/02/23 03:47:19;;;;;;;45.10;25.27;;;-1.20;99.90;;;;;;5073206;28;20036;-74
2024/02/23 03:49:44;;;;;;;45.10;22.13;;;-1.20;99.90;;;;;;5054873;28;20029;-74
2024/02/23 03:52:10;;;;;;;43.65;22.25;;;-1.20;99.90;;;;;;5072516;28;20039;-73
2024/02/23 03:54:36;;;;;;;54.25;23.02;;;-1.30;99.90;;;;;;5072902;28;20096;-75
2024/02/23 03:57:03;;;;;;;44.90;22.55;;;-1.40;99.90;;;;;;5055279;28;20086;-77
2024/02/23 03:59:29;;;;;;;48.83;24.63;;;-1.50;99.90;;;;;;5059568;28;20028;-75
2024/02/23 04:01:54;;;;;;;41.85;21.05;;;-1.50;99.90;;;;;;5072606;28;20029;-76
2024/02/23 04:04:20;;;;;;;37.10;20.75;;;-1.40;99.90;;;;;;5072371;28;20486;-75
2024/02/23 04:06:46;;;;;;;46.33;25.17;;;-1.40;99.90;;;;;;5072373;28;20429;-74
2024/02/23 04:09:12;;;;;;;50.70;24.58;;;-1.50;99.90;;;;;;5072371;28;20017;-75
2024/02/23 04:11:38;;;;;;;53.00;24.65;;;-1.50;99.90;;;;;;5072183;28;20038;-75
2024/02/23 04:14:06;;;;;;;55.22;28.23;;;-1.40;99.90;;;;;;5073134;28;20471;-75
2024/02/23 04:16:32;;;;;;;48.72;27.02;;;-1.30;99.90;;;;;;5060520;28;20033;-73
2024/02/23 04:18:59;;;;;;;62.42;30.35;;;-1.20;99.90;;;;;;5070780;28;20021;-76
2024/02/23 04:21:25;;;;;;;52.88;25.33;;;-1.20;99.90;;;;;;5054256;28;20021;-73
2024/02/23 04:23:51;;;;;;;52.90;25.40;;;-1.20;99.90;;;;;;5072019;28;20024;-74
2024/02/23 04:26:17;;;;;;;52.67;27.48;;;-1.20;99.90;;;;;;5072112;28;20021;-75
2024/02/23 04:28:43;;;;;;;52.92;27.02;;;-1.20;99.90;;;;;;5052038;28;20111;-75
2024/02/23 04:31:09;;;;;;;49.55;22.48;;;-1.20;99.90;;;;;;5053974;28;20040;-75
2024/02/23 04:33:36;;;;;;;50.42;22.33;;;-1.10;99.90;;;;;;5057572;28;20032;-74
2024/02/23 04:36:03;;;;;;;55.60;28.17;;;-1.10;99.90;;;;;;5071953;28;20021;-74
2024/02/23 04:38:30;;;;;;;53.55;27.23;;;-1.00;99.90;;;;;;5071662;28;20040;-74
2024/02/23 04:40:56;;;;;;;51.67;27.30;;;-1.00;99.90;;;;;;5071975;28;20024;-75
2024/02/23 04:43:23;;;;;;;48.92;23.73;;;-1.00;99.90;;;;;;5068876;28;20033;-74
2024/02/23 04:45:50;;;;;;;54.10;27.27;;;-1.00;99.90;;;;;;5053645;28;20033;-74
2024/02/23 04:48:16;;;;;;;47.00;23.65;;;-1.00;99.90;;;;;;5070759;28;20060;-74
2024/02/23 04:50:42;;;;;;;60.92;28.73;;;-1.00;99.90;;;;;;5071568;28;20121;-73
2024/02/23 04:53:10;;;;;;;58.80;28.55;;;-1.10;99.90;;;;;;5071788;28;20036;-74
2024/02/23 04:55:38;;;;;;;53.70;29.20;;;-1.00;99.90;;;;;;5071754;28;20028;-76
2024/02/23 04:58:04;;;;;;;63.90;31.15;;;-1.00;99.90;;;;;;5053258;28;20418;-75
2024/02/23 05:00:33;;;;;;;49.17;25.63;;;-0.90;99.90;;;;;;5068381;28;20572;-76
2024/02/23 05:03:04;;;;;;;57.72;28.38;;;-0.90;99.90;;;;;;5070463;28;20052;-77
2024/02/23 05:05:31;;;;;;;50.42;26.20;;;-0.90;99.90;;;;;;5071410;28;20031;-75
2024/02/23 05:07:57;;;;;;;63.10;27.77;;;-0.90;99.90;;;;;;5071196;28;20029;-74
2024/02/23 05:10:23;;;;;;;60.83;29.08;;;-0.90;99.90;;;;;;5070975;28;20052;-75
2024/02/23 05:12:50;;;;;;;57.03;28.52;;;-0.80;99.90;;;;;;5071600;28;20133;-77
2024/02/23 05:15:16;;;;;;;51.00;24.83;;;-0.80;99.90;;;;;;5051637;28;20017;-74
2024/02/23 05:17:42;;;;;;;41.75;23.67;;;-0.80;99.90;;;;;;5070636;28;20032;-76
2024/02/23 05:20:10;;;;;;;54.45;27.05;;;-0.90;99.90;;;;;;5070930;28;20013;-74
2024/02/23 05:22:40;;;;;;;61.80;31.33;;;-1.00;99.90;;;;;;5070346;28;20381;-76
2024/02/23 05:25:06;;;;;;;59.63;30.83;;;-0.90;99.90;;;;;;5053254;28;20035;-75
2024/02/23 05:27:32;;;;;;;48.30;26.60;;;-0.80;99.90;;;;;;5070401;28;20108;-76
2024/02/23 05:29:58;;;;;;;55.80;29.23;;;-0.70;99.90;;;;;;5051329;28;20116;-75
2024/02/23 05:32:24;;;;;;;48.90;24.63;;;-0.70;99.90;;;;;;5057113;28;20033;-75
2024/02/23 05:34:52;;;;;;;38.38;19.25;;;-0.70;99.90;;;;;;5075083;28;20021;-75
2024/02/23 05:37:18;;;;;;;54.95;26.05;;;-0.60;99.90;;;;;;5073750;28;20025;-75
2024/02/23 05:39:45;;;;;;;48.00;25.08;;;-0.80;99.90;;;;;;5056792;28;20025;-75
2024/02/23 05:42:13;;;;;;;44.55;25.83;;;-0.90;99.90;;;;;;5075058;28;20066;-75
2024/02/23 05:44:39;;;;;;;54.95;25.10;;;-0.90;99.90;;;;;;5075161;28;20115;-75
2024/02/23 05:47:05;;;;;;;52.40;27.55;;;-0.90;99.90;;;;;;5055844;28;20486;-76
2024/02/23 05:49:31;;;;;;;48.15;26.20;;;-0.90;99.90;;;;;;5075480;28;20020;-77
2024/02/23 05:51:57;;;;;;;49.42;25.85;;;-0.80;99.90;;;;;;5051818;28;20048;-76
2024/02/23 05:54:23;;;;;;;46.40;25.45;;;-0.80;99.90;;;;;;5067698;28;20551;-75
2024/02/23 05:56:49;;;;;;;51.65;25.42;;;-0.80;99.90;;;;;;5075249;28;20039;-76
2024/02/23 05:59:15;;;;;;;52.60;25.23;;;-0.70;99.90;;;;;;5076036;28;20482;-77
2024/02/23 06:01:41;;;;;;;46.97;25.25;;;-0.70;99.90;;;;;;5073795;28;20021;-75
2024/02/23 06:04:07;;;;;;;51.67;22.77;;;-0.70;99.90;;;;;;5056365;28;20101;-76
2024/02/23 06:06:33;;;;;;;49.50;24.23;;;-0.70;99.90;;;;;;5054910;28;20024;-76
2024/02/23 06:08:59;;;;;;;49.40;28.27;;;-0.70;99.90;;;;;;5074675;28;20139;-75
2024/02/23 06:11:25;;;;;;;54.97;27.35;;;-0.70;99.90;;;;;;5074439;28;20027;-76
2024/02/23 06:13:51;;;;;;;52.20;28.30;;;-0.70;99.90;;;;;;5074074;28;20036;-78
2024/02/23 06:16:17;;;;;;;52.22;26.20;;;-0.60;99.90;;;;;;5074328;28;20086;-74
2024/02/23 06:18:44;;;;;;;50.83;27.60;;;-0.60;99.90;;;;;;5074297;28;20052;-76
2024/02/23 06:21:20;;;;;;;47.33;25.65;;;-0.50;99.90;;;;;;5073423;28;20424;-76
2024/02/23 06:23:46;;;;;;;43.45;25.27;;;-0.50;99.90;;;;;;5072147;28;20112;-74
2024/02/23 06:26:12;;;;;;;48.28;26.30;;;-0.50;99.90;;;;;;5074085;28;20477;-76
2024/02/23 06:28:41;;;;;;;50.75;25.73;;;-0.50;99.90;;;;;;5080665;28;20089;-74
2024/02/23 06:31:08;;;;;;;61.25;27.60;;;-0.50;99.90;;;;;;5073680;28;20374;-74
2024/02/23 06:33:34;;;;;;;52.42;23.80;;;-0.60;99.90;;;;;;5075179;28;20024;-74
2024/02/23 06:36:00;;;;;;;47.45;26.63;;;-0.60;99.90;;;;;;5070424;28;20110;-76
2024/02/23 06:38:29;;;;;;;53.58;26.90;;;-0.60;99.90;;;;;;5072945;28;20073;-76
2024/02/23 06:40:56;;;;;;;44.85;24.90;;;-0.60;99.90;;;;;;5073477;28;20082;-75
2024/02/23 06:43:22;;;;;;;48.15;24.80;;;-0.60;99.90;;;;;;5074126;28;20070;-76
2024/02/23 06:45:48;;;;;;;44.28;25.08;;;-0.70;99.90;;;;;;5055615;28;20025;-75
2024/02/23 06:48:14;;;;;;;51.97;25.35;;;-0.70;99.90;;;;;;5073756;28;20032;-76
2024/02/23 06:50:40;;;;;;;47.85;27.48;;;-0.70;99.90;;;;;;5055930;28;20115;-76
2024/02/23 06:53:06;;;;;;;46.83;25.90;;;-0.60;99.90;;;;;;5073629;28;20036;-76
2024/02/23 06:55:34;;;;;;;44.08;23.58;;;-0.50;99.90;;;;;;5072613;28;20115;-76
2024/02/23 06:57:59;;;;;;;45.30;24.98;;;-0.60;99.90;;;;;;5074382;28;20551;-77
2024/02/23 07:00:25;;;;;;;55.50;27.40;;;-0.60;99.90;;;;;;5074201;28;20028;-76
2024/02/23 07:02:51;;;;;;;51.38;27.80;;;-0.60;99.90;;;;;;5073402;28;20075;-76
2024/02/23 07:05:18;;;;;;;47.00;25.80;;;-0.60;99.90;;;;;;5073494;28;20362;-75
2024/02/23 07:07:44;;;;;;;57.00;29.63;;;-0.60;99.90;;;;;;5073355;28;20028;-75
2024/02/23 07:10:11;;;;;;;54.10;27.25;;;-0.50;99.90;;;;;;5072422;28;23014;-76
2024/02/23 07:12:36;;;;;;;59.50;29.83;;;-0.40;99.90;;;;;;5072952;28;20037;-74
2024/02/23 07:15:02;;;;;;;55.92;28.83;;;-0.40;99.90;;;;;;5072746;28;20031;-75
2024/02/23 07:17:28;;;;;;;61.40;29.10;;;-0.30;99.90;;;;;;5072808;28;20478;-75
2024/02/23 07:20:01;;;;;;;54.63;29.27;;;-0.30;99.90;;;;;;5072412;28;20016;-76
2024/02/23 07:22:27;;;;;;;57.45;29.55;;;-0.30;99.90;;;;;;5073147;28;20032;-78
2024/02/23 07:24:53;;;;;;;53.58;28.58;;;-0.30;99.90;;;;;;5073485;28;20084;-79
2024/02/23 07:27:19;;;;;;;56.10;29.95;;;-0.40;99.90;;;;;;5054110;28;20100;-80
2024/02/23 07:29:45;;;;;;;50.20;27.48;;;-0.40;99.90;;;;;;5055312;28;20143;-80
2024/02/23 07:32:11;;;;;;;64.40;32.92;;;-0.50;99.90;;;;;;5072538;28;20036;-80
2024/02/23 07:34:37;;;;;;;55.13;29.05;;;-0.40;99.90;;;;;;5073681;28;20020;-77
2024/02/23 07:37:03;;;;;;;48.67;27.95;;;-0.30;99.90;;;;;;5070542;28;20028;-81
2024/02/23 07:39:29;;;;;;;51.63;28.08;;;-0.20;99.90;;;;;;5073835;28;20056;-80
2024/02/23 07:41:55;;;;;;;50.17;24.98;;;-0.20;99.90;;;;;;5075358;28;20036;-79
2024/02/23 07:44:21;;;;;;;50.50;23.20;;;-0.20;99.90;;;;;;5055033;28;20031;-78
2024/02/23 07:46:47;;;;;;;52.00;26.95;;;-0.30;99.90;;;;;;5071665;28;20092;-81
2024/02/23 07:49:12;;;;;;;55.75;27.67;;;-0.20;99.90;;;;;;5072830;28;20072;-79
2024/02/23 07:51:39;;;;;;;56.10;25.83;;;-0.20;99.90;;;;;;5053866;28;20056;-77
2024/02/23 07:54:05;;;;;;;47.08;25.08;;;-0.20;99.90;;;;;;5051048;28;20025;-80
2024/02/23 07:56:31;;;;;;;46.47;22.52;;;-0.10;99.90;;;;;;5072929;28;20044;-77
2024/02/23 07:58:57;;;;;;;39.60;21.73;;;-0.10;99.90;;;;;;5072940;28;20048;-79
2024/02/23 08:01:23;;;;;;;46.22;22.58;;;-0.10;99.90;;;;;;5070897;28;20017;-78
2024/02/23 08:03:49;;;;;;;42.85;22.35;;;-0.30;99.90;;;;;;5071749;28;20064;-78
2024/02/23 08:06:14;;;;;;;49.42;27.13;;;-0.30;99.90;;;;;;5072077;28;20024;-76
2024/02/23 08:08:40;;;;;;;51.17;28.08;;;-0.30;99.90;;;;;;5072542;28;20433;-75
2024/02/23 08:11:06;;;;;;;43.47;23.75;;;-0.30;99.90;;;;;;5071527;28;20027;-77
2024/02/23 08:13:32;;;;;;;43.97;25.00;;;-0.10;99.90;;;;;;5069845;28;20047;-76
2024/02/23 08:15:58;;;;;;;44.60;25.45;;;-0.10;99.90;;;;;;5071180;28;20139;-80
2024/02/23 08:18:24;;;;;;;40.20;22.67;;;0.10;99.90;;;;;;5068176;28;20394;-78
2024/02/23 08:20:51;;;;;;;38.00;23.08;;;0.10;99.90;;;;;;5062203;28;20025;-77
2024/02/23 08:23:19;;;;;;;51.30;25.08;;;0.20;99.90;;;;;;5072076;28;20687;-80
2024/02/23 08:25:44;;;;;;;41.95;24.77;;;0.30;99.90;;;;;;5072833;28;20050;-79
2024/02/23 08:28:10;;;;;;;40.28;20.13;;;0.30;99.90;;;;;;5073374;28;20490;-79
2024/02/23 08:30:36;;;;;;;41.20;22.38;;;0.30;99.90;;;;;;5071338;28;20028;-78
2024/02/23 08:33:02;;;;;;;47.83;26.33;;;0.20;99.90;;;;;;5071909;28;20509;-78
2024/02/23 08:35:28;;;;;;;46.90;25.27;;;0.30;99.90;;;;;;5069790;28;20017;-79
2024/02/23 08:37:53;;;;;;;46.90;24.08;;;0.30;99.90;;;;;;5054358;28;20477;-78
2024/02/23 08:40:19;;;;;;;47.13;25.15;;;0.20;99.90;;;;;;5071640;28;20025;-78
2024/02/23 08:42:47;;;;;;;47.58;23.17;;;0.30;99.90;;;;;;5071866;28;20091;-79
2024/02/23 08:45:13;;;;;;;47.70;22.05;;;0.30;99.90;;;;;;5071995;28;20013;-78
2024/02/23 08:47:39;;;;;;;44.25;25.02;;;0.30;99.90;;;;;;5073155;28;20039;-79
2024/02/23 08:50:06;;;;;;;39.20;22.73;;;0.30;99.90;;;;;;5070869;28;20024;-78
2024/02/23 08:52:32;;;;;;;46.75;24.55;;;0.40;99.90;;;;;;5053621;28;20397;-78
2024/02/23 08:55:00;;;;;;;43.47;22.83;;;0.30;99.90;;;;;;5071906;28;20029;-77
2024/02/23 08:57:25;;;;;;;;;;;0.30;99.90;;;;;;5054362;28;20025;-79
2024/02/23 08:59:51;;;;;;;44.00;21.02;;;0.30;99.90;;;;;;5070403;28;19926;-77
2024/02/23 09:02:18;;;;;;;37.08;20.85;;;0.20;99.90;;;;;;5051392;28;20045;-77
2024/02/23 09:04:47;;;;;;;37.05;22.50;;;0.30;99.90;;;;;;5053858;28;20036;-78
2024/02/23 09:07:13;;;;;;;41.47;24.20;;;0.30;99.90;;;;;;5050848;28;20067;-81
2024/02/23 09:09:39;;;;;;;38.70;22.25;;;0.40;99.90;;;;;;5067248;28;20125;-78
2024/02/23 09:12:10;;;;;;;43.78;21.38;;;0.50;99.90;;;;;;5072145;28;20029;-77
2024/02/23 09:14:38;;;;;;;32.30;20.90;;;0.50;99.90;;;;;;5071871;28;20017;-78
2024/02/23 09:17:05;;;;;;;45.53;21.85;;;0.50;99.90;;;;;;5071717;28;20025;-78
2024/02/23 09:19:31;;;;;;;;;;;0.50;99.90;;;;;;5073393;28;20020;-78
2024/02/23 09:21:57;;;;;;;37.10;20.33;;;0.50;99.90;;;;;;5075943;28;19995;-78
2024/02/23 09:24:23;;;;;;;40.58;20.58;;;0.50;99.90;;;;;;5072329;28;20032;-79
2024/02/23 09:26:49;;;;;;;37.28;21.05;;;0.50;99.90;;;;;;5054111;28;20078;-78
2024/02/23 09:29:15;;;;;;;37.90;24.33;;;0.50;99.90;;;;;;5071584;28;20029;-78
2024/02/23 09:31:41;;;;;;;38.85;20.15;;;0.60;99.90;;;;;;5071230;28;20054;-78
2024/02/23 09:34:06;;;;;;;36.78;19.80;;;0.70;99.90;;;;;;5054015;28;20020;-78
2024/02/23 09:36:33;;;;;;;41.03;20.15;;;0.60;99.90;;;;;;5069981;28;20478;-78
2024/02/23 09:38:59;;;;;;;39.45;20.08;;;0.60;99.90;;;;;;5069836;28;20048;-77
2024/02/23 09:41:24;;;;;;;35.90;22.38;;;0.60;99.90;;;;;;5070779;28;20116;-79
2024/02/23 09:43:50;;;;;;;41.25;21.58;;;0.60;99.90;;;;;;5071271;28;20381;-76
2024/02/23 09:46:17;;;;;;;37.15;18.50;;;0.60;99.90;;;;;;5071332;28;20012;-77
2024/02/23 09:48:48;;;;;;;40.83;21.80;;;0.50;99.90;;;;;;5071110;28;20058;-79
2024/02/23 09:51:15;;;;;;;40.40;21.02;;;0.50;99.90;;;;;;5071088;28;20093;-76
2024/02/23 09:53:44;;;;;;;35.63;21.10;;;0.50;99.90;;;;;;5050920;28;20393;-77
2024/02/23 09:56:10;;;;;;;35.00;18.08;;;0.60;99.90;;;;;;5074633;28;20024;-77
2024/02/23 09:58:37;;;;;;;40.05;22.67;;;0.60;99.90;;;;;;5073516;28;20024;-80
2024/02/23 10:01:04;;;;;;;41.90;22.42;;;0.60;99.90;;;;;;5071882;28;20139;-77
2024/02/23 10:03:30;;;;;;;37.38;19.75;;;0.70;99.90;;;;;;5070961;28;20060;-79
2024/02/23 10:05:57;;;;;;;40.92;20.75;;;0.70;99.90;;;;;;5071376;28;20024;-77
2024/02/23 10:08:23;;;;;;;45.30;24.08;;;0.70;99.90;;;;;;5071098;28;20055;-78
2024/02/23 10:10:50;;;;;;;37.97;22.33;;;0.80;99.90;;;;;;5068157;28;20028;-79
2024/02/23 10:13:26;;;;;;;39.08;23.00;;;0.90;99.90;;;;;;5048760;28;20406;-78
2024/02/23 10:15:52;;;;;;;44.65;23.17;;;0.90;99.90;;;;;;5059400;28;20056;-78
2024/02/23 10:18:19;;;;;;;47.05;24.73;;;0.80;99.90;;;;;;5074601;28;20470;-78
2024/02/23 10:20:46;;;;;;;39.43;23.27;;;0.70;99.90;;;;;;5074882;28;20145;-78
2024/02/23 10:23:12;;;;;;;39.95;21.73;;;0.80;99.90;;;;;;5074596;28;20269;-77
2024/02/23 10:25:38;;;;;;;47.17;24.75;;;0.80;99.90;;;;;;5074976;28;20027;-77
2024/02/23 10:28:06;;;;;;;42.70;24.15;;;0.80;99.90;;;;;;5074019;28;20029;-78
2024/02/23 10:30:33;;;;;;;46.67;24.00;;;0.80;99.90;;;;;;5074907;28;20027;-79
2024/02/23 10:32:59;;;;;;;45.60;22.60;;;0.80;99.90;;;;;;5073303;28;20044;-77
2024/02/23 10:35:26;;;;;;;38.97;24.90;;;0.90;99.90;;;;;;5074175;28;20061;-79
2024/02/23 10:37:54;;;;;;;45.72;25.92;;;0.90;99.90;;;;;;5055338;28;20042;-79
2024/02/23 10:40:23;;;;;;;43.97;21.98;;;0.90;99.90;;;;;;5056195;28;20115;-81
2024/02/23 10:42:53;;;;;;;47.92;24.17;;;1.00;99.90;;;;;;5074403;28;20059;-78
2024/02/23 10:45:24;;;;;;;42.33;21.30;;;1.00;99.90;;;;;;5073038;28;20033;-80
2024/02/23 10:47:51;;;;;;;50.40;25.23;;;1.00;99.90;;;;;;5073530;28;20033;-81
2024/02/23 10:50:19;;;;;;;48.42;27.00;;;1.00;99.90;;;;;;5057220;28;20490;-79
2024/02/23 10:52:46;;;;;;;51.92;26.10;;;0.90;99.90;;;;;;5075540;28;20474;-78
2024/02/23 10:55:14;;;;;;;46.47;22.15;;;1.00;99.90;;;;;;5059297;28;20064;-78
2024/02/23 10:57:40;;;;;;;41.42;23.90;;;1.00;99.90;;;;;;5074466;28;20473;-79
2024/02/23 11:00:11;;;;;;;42.50;24.15;;;0.90;99.90;;;;;;5074270;28;20059;-79
2024/02/23 11:02:45;;;;;;;48.60;26.30;;;0.90;99.90;;;;;;5073915;28;20032;-80
2024/02/23 11:05:13;;;;;;;51.78;23.25;;;1.10;99.90;;;;;;5076470;28;20043;-79
2024/02/23 11:07:39;;;;;;;44.97;24.88;;;1.30;99.90;;;;;;5072510;28;20036;-78
2024/02/23 11:10:06;;;;;;;57.33;27.35;;;1.30;99.90;;;;;;5069321;28;20103;-77
2024/02/23 11:12:33;;;;;;;51.67;26.42;;;1.40;99.90;;;;;;5073674;28;20078;-78
2024/02/23 11:15:00;;;;;;;37.58;22.52;;;1.40;99.90;;;;;;5073461;28;20027;-78
2024/02/23 11:17:34;;;;;;;55.90;25.67;;;1.40;99.90;;;;;;5073817;28;20029;-79
2024/02/23 11:20:04;;;;;;;46.58;24.95;;;1.50;99.90;;;;;;5070971;28;20039;-78
2024/02/23 11:22:37;;;;;;;50.08;21.60;;;1.50;99.90;;;;;;5071900;28;20024;-79
2024/02/23 11:25:15;;;;;;;48.78;24.38;;;1.40;99.90;;;;;;5055311;28;20389;-77
2024/02/23 11:27:42;;;;;;;;;;;1.30;99.90;;;;;;5065779;28;20020;-77
2024/02/23 11:30:11;;;;;;;47.33;22.80;;;1.30;99.90;;;;;;5073434;28;20341;-78
2024/02/23 11:32:48;;;;;;;46.75;24.33;;;1.30;99.90;;;;;;5073272;28;20074;-78
2024/02/23 11:35:21;;;;;;;48.40;24.73;;;1.40;99.90;;;;;;5072976;28;20573;-78
2024/02/23 11:37:59;;;;;;;47.47;25.02;;;1.50;99.90;;;;;;5073099;28;20036;-77
2024/02/23 11:40:30;;;;;;;46.97;24.40;;;1.50;99.90;;;;;;5072877;28;20099;-79
2024/02/23 11:42:56;;;;;;;46.13;23.52;;;1.60;99.90;;;;;;5073156;28;20020;-78
2024/02/23 11:45:27;;;;;;;47.05;26.60;;;1.50;99.90;;;;;;5054069;28;20024;-79
2024/02/23 11:47:53;;;;;;;39.00;19.63;;;1.50;99.90;;;;;;5072913;28;20020;-80
2024/02/23 11:50:20;;;;;;;52.78;25.02;;;1.50;99.90;;;;;;5054962;28;20044;-77
2024/02/23 11:52:47;;;;;;;49.67;24.52;;;1.50;99.90;;;;;;5072717;28;20032;-78
2024/02/23 11:55:18;;;;;;;37.28;21.40;;;1.50;99.90;;;;;;5071979;28;20541;-78
2024/02/23 11:57:45;;;;;;;48.50;28.42;;;1.60;99.90;;;;;;5063825;28;20370;-77
2024/02/23 12:00:11;;;;;;;45.58;24.85;;;1.60;99.90;;;;;;5071455;28;20012;-77
2024/02/23 12:02:37;;;;;;;49.47;23.30;;;1.60;99.90;;;;;;5050007;28;20039;-76
2024/02/23 12:05:03;;;;;;;51.78;27.48;;;1.60;99.90;;;;;;5067233;28;20458;-80
2024/02/23 12:07:34;;;;;;;55.30;26.05;;;1.60;99.90;;;;;;5077368;28;20046;-77
2024/02/23 12:10:00;;;;;;;47.95;25.63;;;1.50;99.90;;;;;;5073761;28;20008;-77
2024/02/23 12:12:26;;;;;;;47.63;25.10;;;1.50;99.90;;;;;;5072349;28;20644;-77
2024/02/23 12:14:52;;;;;;;51.35;25.27;;;1.60;99.90;;;;;;5073483;28;20032;-79
2024/02/23 12:17:18;;;;;;;39.50;21.63;;;1.60;99.90;;;;;;5066525;28;20385;-77
2024/02/23 12:19:44;;;;;;;44.50;22.73;;;1.70;99.90;;;;;;5052603;28;20115;-79
2024/02/23 12:22:13;;;;;;;48.00;25.13;;;1.60;99.90;;;;;;5072231;28;20056;-78
2024/02/23 12:24:41;;;;;;;55.53;25.92;;;1.60;99.90;;;;;;5071970;28;20032;-80
2024/02/23 12:27:07;;;;;;;53.72;26.48;;;1.60;99.90;;;;;;5071677;28;20040;-79